Time;durP1;ratioP1;P1;durP2;ratioP2;P2;SDS_P1;SDS_P2;PMS_P1;PMS_P2;Temp;Humidity;BMP_temperature;BMP_pressure;BME280_temperature;BME280_humidity;BME280_pressure;Samples;Min_cycle;Max_cycle;Signal;HPM_P1;HPM_P2
2023/08/20 03:00:44;;;;;;;2.17;2.00;;;25.70;61.20;;;;;;5966607;23;46319;-85
2023/08/20 03:03:12;;;;;;;2.42;2.22;;;25.70;61.30;;;;;;4788974;29;53277;-83
2023/08/20 03:05:38;;;;;;;2.78;2.50;;;25.60;61.20;;;;;;4812682;29;45272;-81
2023/08/20 03:08:04;;;;;;;4.38;2.65;;;25.70;61.40;;;;;;4831184;29;44659;-83
2023/08/20 03:10:33;;;;;;;2.80;1.95;;;25.70;61.20;;;;;;4848043;29;44961;-81
2023/08/20 03:13:02;;;;;;;2.22;1.90;;;25.70;61.30;;;;;;4844711;29;45381;-82
2023/08/20 03:15:28;;;;;;;2.13;1.92;;;25.70;61.20;;;;;;4816891;29;45902;-82
2023/08/20 03:17:54;;;;;;;2.10;1.90;;;25.70;61.30;;;;;;4811117;29;45439;-81
2023/08/20 03:20:19;;;;;;;2.03;1.80;;;25.70;61.20;;;;;;4813248;29;44993;-82
2023/08/20 03:22:45;;;;;;;2.42;2.22;;;25.70;61.20;;;;;;4814038;29;47434;-80
2023/08/20 03:25:11;;;;;;;2.08;1.88;;;25.70;61.20;;;;;;4799923;29;45259;-82
2023/08/20 03:27:36;;;;;;;2.20;2.00;;;25.70;61.30;;;;;;4849307;29;44950;-83
2023/08/20 03:30:14;;;;;;;2.67;1.80;;;25.70;61.20;;;;;;4859468;29;45100;-82
2023/08/20 03:32:40;;;;;;;2.72;1.88;;;25.70;61.20;;;;;;4801674;29;46960;-81
2023/08/20 03:35:06;;;;;;;2.13;1.92;;;25.70;61.20;;;;;;4825401;29;45311;-82
2023/08/20 03:37:32;;;;;;;2.35;2.13;;;25.70;61.20;;;;;;4843315;29;45257;-81
2023/08/20 03:39:57;;;;;;;2.40;2.20;;;25.70;61.20;;;;;;4802324;29;45368;-81
2023/08/20 03:42:23;;;;;;;2.35;2.00;;;25.70;61.20;;;;;;4808645;29;46849;-81
2023/08/20 03:44:49;;;;;;;2.05;1.80;;;25.70;61.20;;;;;;4816104;29;45286;-86
2023/08/20 03:47:15;;;;;;;2.47;2.22;;;25.70;61.20;;;;;;4840608;29;45024;-80
2023/08/20 03:49:40;;;;;;;2.67;2.08;;;25.70;61.20;;;;;;4830949;29;45132;-82
2023/08/20 03:52:06;;;;;;;2.17;2.00;;;25.70;61.20;;;;;;4845897;29;46048;-82
2023/08/20 03:54:32;;;;;;;3.00;2.10;;;25.70;61.20;;;;;;4797515;29;44753;-82
2023/08/20 03:56:58;;;;;;;2.45;2.25;;;25.60;61.10;;;;;;4827019;29;44952;-80
2023/08/20 03:59:24;;;;;;;1.80;1.70;;;25.70;61.20;;;;;;4841931;29;45085;-81
2023/08/20 04:01:49;;;;;;;2.05;1.85;;;25.70;61.30;;;;;;4817666;29;48256;-81
2023/08/20 04:04:15;;;;;;;2.20;2.00;;;25.70;61.20;;;;;;4802287;29;44781;-79
2023/08/20 04:06:41;;;;;;;2.20;2.00;;;25.70;61.30;;;;;;4841869;29;45432;-82
2023/08/20 04:09:07;;;;;;;2.20;2.00;;;25.70;62.00;;;;;;4832832;29;44926;-80
2023/08/20 04:11:32;;;;;;;2.30;2.10;;;25.70;61.20;;;;;;4822758;29;47100;-79
2023/08/20 04:13:58;;;;;;;2.88;2.15;;;25.70;61.20;;;;;;4836478;29;45291;-80
2023/08/20 04:16:24;;;;;;;2.58;1.85;;;25.70;61.20;;;;;;4827387;29;45298;-80
2023/08/20 04:18:49;;;;;;;3.25;2.00;;;25.70;61.20;;;;;;4812074;29;44888;-81
2023/08/20 04:21:15;;;;;;;2.35;2.10;;;25.70;61.20;;;;;;4832488;29;47089;-82
2023/08/20 04:23:41;;;;;;;2.40;2.20;;;25.70;61.30;;;;;;4834323;29;45539;-82
2023/08/20 04:26:07;;;;;;;3.05;2.28;;;25.60;61.20;;;;;;4842406;29;45880;-79
2023/08/20 04:28:33;;;;;;;1.95;1.75;;;25.70;61.20;;;;;;4821460;29;45201;-83
2023/08/20 04:31:01;;;;;;;3.38;1.67;;;25.70;61.20;;;;;;4796220;29;46870;-79
2023/08/20 04:33:26;;;;;;;2.58;2.30;;;25.60;61.20;;;;;;4830374;29;44913;-81
2023/08/20 04:35:52;;;;;;;2.42;2.22;;;25.70;61.30;;;;;;4809898;29;45280;-80
2023/08/20 04:38:18;;;;;;;2.25;2.00;;;25.70;61.20;;;;;;4848385;29;45404;-82
2023/08/20 04:40:47;;;;;;;2.25;2.00;;;25.70;61.20;;;;;;4825002;29;46846;-81
2023/08/20 04:43:13;;;;;;;2.70;2.20;;;25.70;61.20;;;;;;4830141;29;45266;-82
2023/08/20 04:45:39;;;;;;;4.07;2.30;;;25.70;61.30;;;;;;4827680;29;45251;-79
2023/08/20 04:48:05;;;;;;;2.45;2.25;;;25.70;61.30;;;;;;4832257;29;45468;-82
2023/08/20 04:50:30;;;;;;;1.95;1.80;;;25.70;61.30;;;;;;4844847;29;47415;-80
2023/08/20 04:52:56;;;;;;;2.30;2.10;;;25.70;61.30;;;;;;4848660;29;45336;-81
2023/08/20 04:55:21;;;;;;;2.38;2.00;;;25.70;61.20;;;;;;4826153;29;45591;-80
2023/08/20 04:57:47;;;;;;;2.35;2.15;;;25.70;61.20;;;;;;4832076;29;44728;-81
2023/08/20 05:00:13;;;;;;;2.20;2.00;;;25.70;61.20;;;;;;4816231;29;45299;-87
2023/08/20 05:02:38;;;;;;;3.08;2.33;;;25.70;61.30;;;;;;4812045;29;45344;-80
2023/08/20 05:05:04;;;;;;;2.53;2.22;;;25.70;61.20;;;;;;4811782;29;45344;-88
2023/08/20 05:07:30;;;;;;;3.60;1.98;;;25.70;61.30;;;;;;4811823;29;44798;-81
2023/08/20 05:09:56;;;;;;;2.30;1.85;;;25.70;61.30;;;;;;4795919;29;47349;-86
2023/08/20 05:12:21;;;;;;;2.58;2.38;;;25.70;61.30;;;;;;4809232;29;44758;-82
2023/08/20 05:14:47;;;;;;;3.10;2.28;;;25.70;61.30;;;;;;4818692;29;45529;-79
2023/08/20 05:17:12;;;;;;;2.33;1.83;;;25.70;61.30;;;;;;4812263;29;45280;-81
2023/08/20 05:19:38;;;;;;;2.45;2.25;;;25.70;61.30;;;;;;4798981;29;47177;-80
2023/08/20 05:22:04;;;;;;;2.17;2.08;;;25.70;61.30;;;;;;4814267;29;45285;-81
2023/08/20 05:24:29;;;;;;;2.55;2.13;;;25.70;61.30;;;;;;4836295;29;45034;-79
2023/08/20 05:27:16;;;;;;;2.40;2.20;;;25.60;61.20;;;;;;4807246;29;45451;-81
2023/08/20 05:29:42;;;;;;;1.92;1.83;;;25.70;61.20;;;;;;4798773;29;46216;-81
2023/08/20 05:32:08;;;;;;;2.10;1.90;;;25.70;61.30;;;;;;4807400;29;45054;-79
2023/08/20 05:34:33;;;;;;;2.30;2.10;;;25.60;61.20;;;;;;4813173;29;45532;-79
2023/08/20 05:36:59;;;;;;;2.47;2.20;;;25.70;61.30;;;;;;4796112;29;45237;-80
2023/08/20 05:39:25;;;;;;;2.70;2.00;;;25.70;61.30;;;;;;4815020;29;45240;-84
2023/08/20 05:41:52;;;;;;;3.28;2.47;;;25.70;61.30;;;;;;4806663;29;45199;-81
2023/08/20 05:44:17;;;;;;;2.55;2.35;;;25.70;61.30;;;;;;4829175;29;44805;-81
2023/08/20 05:46:43;;;;;;;2.70;2.17;;;25.60;61.20;;;;;;4812066;29;45249;-80
2023/08/20 05:49:09;;;;;;;3.42;2.28;;;25.70;61.30;;;;;;4811341;29;45369;-80
2023/08/20 05:51:34;;;;;;;3.08;2.20;;;25.60;61.20;;;;;;4827083;29;45363;-81
2023/08/20 05:54:00;;;;;;;2.58;2.22;;;25.70;61.30;;;;;;4827123;29;44941;-84
2023/08/20 05:56:25;;;;;;;2.92;2.20;;;25.60;61.20;;;;;;4811803;29;45352;-82
2023/08/20 05:58:51;;;;;;;2.33;2.13;;;25.60;61.30;;;;;;4825795;29;45368;-81
2023/08/20 06:01:16;;;;;;;2.33;2.13;;;25.60;61.30;;;;;;4808934;29;45508;-82
2023/08/20 06:03:42;;;;;;;2.40;2.20;;;25.60;61.30;;;;;;4806798;29;45133;-82
2023/08/20 06:06:07;;;;;;;2.67;2.13;;;25.60;61.30;;;;;;4810598;29;46387;-82
2023/08/20 06:08:33;;;;;;;2.75;2.20;;;25.60;61.30;;;;;;4798498;29;46790;-82
2023/08/20 06:10:59;;;;;;;2.53;2.22;;;25.60;61.20;;;;;;4825253;29;45058;-82
2023/08/20 06:13:24;;;;;;;3.65;2.30;;;25.60;61.70;;;;;;4786319;29;45704;-82
2023/08/20 06:15:50;;;;;;;2.97;2.28;;;25.60;61.30;;;;;;4815968;29;45075;-81
2023/08/20 06:18:18;;;;;;;2.20;2.00;;;25.60;61.20;;;;;;4816169;29;46485;-83
2023/08/20 06:20:44;;;;;;;2.47;2.28;;;25.60;61.30;;;;;;4813896;29;44915;-79
2023/08/20 06:23:09;;;;;;;2.17;1.98;;;25.60;61.30;;;;;;4806577;29;44705;-82
2023/08/20 06:25:35;;;;;;;2.25;2.08;;;25.60;61.30;;;;;;4799582;29;45314;-80
2023/08/20 06:28:01;;;;;;;2.33;2.13;;;25.60;61.30;;;;;;4831648;29;46904;-84
2023/08/20 06:30:29;;;;;;;2.50;2.30;;;25.60;61.30;;;;;;4815083;29;44818;-82
2023/08/20 06:32:55;;;;;;;2.15;1.95;;;25.60;61.30;;;;;;4845237;29;44765;-81
2023/08/20 06:35:20;;;;;;;2.53;2.33;;;25.60;61.40;;;;;;4809540;29;45571;-80
2023/08/20 06:37:46;;;;;;;2.33;2.13;;;25.60;61.30;;;;;;4800884;29;47124;-81
2023/08/20 06:40:13;;;;;;;2.97;2.58;;;25.60;61.30;;;;;;4798650;29;45909;-81
2023/08/20 06:42:39;;;;;;;2.20;2.10;;;25.60;61.30;;;;;;4817313;29;45502;-81
2023/08/20 06:45:11;;;;;;;3.13;2.10;;;25.60;61.30;;;;;;4799173;29;44858;-84
2023/08/20 06:47:37;;;;;;;3.05;2.15;;;25.60;61.30;;;;;;4793511;29;45962;-79
2023/08/20 06:50:03;;;;;;;2.30;2.10;;;25.60;61.30;;;;;;4799515;29;45267;-86
2023/08/20 06:52:29;;;;;;;2.75;2.17;;;25.60;61.30;;;;;;4797826;29;45736;-80
2023/08/20 06:54:55;;;;;;;2.30;1.88;;;25.70;61.40;;;;;;4824427;29;44817;-79
2023/08/20 06:57:20;;;;;;;2.33;2.13;;;25.60;61.30;;;;;;4824715;29;45248;-79
2023/08/20 06:59:46;;;;;;;2.72;2.17;;;25.60;61.30;;;;;;4794030;29;45260;-84
2023/08/20 07:02:12;;;;;;;2.47;2.28;;;25.60;61.30;;;;;;4807424;29;44724;-81
2023/08/20 07:04:37;;;;;;;2.30;2.10;;;25.60;61.30;;;;;;4847698;29;45653;-80
2023/08/20 07:07:04;;;;;;;2.40;2.20;;;25.70;61.30;;;;;;4831795;29;45437;-79
2023/08/20 07:09:30;;;;;;;2.35;2.15;;;25.60;61.30;;;;;;4849331;29;45347;-82
2023/08/20 07:11:56;;;;;;;2.97;2.13;;;25.60;61.30;;;;;;4830585;29;44742;-82
2023/08/20 07:14:21;;;;;;;3.00;2.60;;;25.70;61.40;;;;;;4824063;29;45261;-81
2023/08/20 07:16:47;;;;;;;2.65;2.45;;;25.60;61.30;;;;;;4841326;29;45342;-82
2023/08/20 07:19:12;;;;;;;3.15;2.08;;;25.60;61.30;;;;;;4828599;29;45405;-86
2023/08/20 07:21:38;;;;;;;2.78;2.28;;;25.60;61.30;;;;;;4836470;29;45315;-81
2023/08/20 07:24:07;;;;;;;3.25;2.15;;;25.60;61.30;;;;;;4804364;29;45247;-82
2023/08/20 07:26:33;;;;;;;2.30;2.10;;;25.60;61.30;;;;;;4846836;29;45233;-84
2023/08/20 07:28:59;;;;;;;2.67;2.13;;;25.60;61.30;;;;;;4833695;29;45650;-81
2023/08/20 07:31:29;;;;;;;2.70;2.50;;;25.60;61.30;;;;;;4834999;29;44858;-87
2023/08/20 07:33:56;;;;;;;4.38;2.35;;;25.60;61.30;;;;;;4837201;29;45175;-83
2023/08/20 07:36:22;;;;;;;2.55;2.10;;;25.60;61.30;;;;;;4834185;29;47261;-81
2023/08/20 07:38:47;;;;;;;3.13;2.00;;;25.60;61.30;;;;;;4850391;29;45192;-80
2023/08/20 07:41:13;;;;;;;2.85;2.47;;;25.60;61.30;;;;;;4814703;29;45011;-82
2023/08/20 07:43:39;;;;;;;2.50;2.20;;;25.60;61.30;;;;;;4831795;29;45599;-83
2023/08/20 07:46:05;;;;;;;2.67;2.30;;;25.60;61.30;;;;;;4805662;29;45340;-82
2023/08/20 07:48:30;;;;;;;2.22;2.03;;;25.60;61.30;;;;;;4830896;29;44994;-81
2023/08/20 07:50:56;;;;;;;2.85;1.90;;;25.60;61.30;;;;;;4829740;29;45123;-81
2023/08/20 07:53:21;;;;;;;2.90;2.10;;;25.60;61.30;;;;;;4830211;29;45398;-81
2023/08/20 07:55:47;;;;;;;2.60;2.13;;;25.60;61.30;;;;;;4830213;29;47362;-80
2023/08/20 07:58:12;;;;;;;2.45;2.25;;;25.60;61.30;;;;;;4816398;29;45773;-84
2023/08/20 08:00:38;;;;;;;2.70;2.33;;;25.60;61.30;;;;;;4829128;29;45467;-81
2023/08/20 08:03:04;;;;;;;2.85;2.00;;;25.60;61.30;;;;;;4811709;29;45382;-80
2023/08/20 08:05:29;;;;;;;2.63;2.17;;;25.60;61.30;;;;;;4828317;29;47340;-82
2023/08/20 08:07:55;;;;;;;2.72;2.30;;;25.60;61.30;;;;;;4817888;29;45369;-82
2023/08/20 08:10:21;;;;;;;2.80;2.25;;;25.60;61.30;;;;;;4829091;29;45870;-80
2023/08/20 08:12:46;;;;;;;2.83;2.28;;;25.60;61.30;;;;;;4849849;29;45113;-85
2023/08/20 08:15:13;;;;;;;2.78;2.35;;;25.60;62.00;;;;;;4826543;29;48146;-82
2023/08/20 08:17:38;;;;;;;2.75;2.30;;;25.70;61.40;;;;;;4829959;29;46201;-80
2023/08/20 08:20:06;;;;;;;2.50;2.30;;;25.70;61.30;;;;;;4846902;29;45241;-83
2023/08/20 08:22:31;;;;;;;2.40;2.20;;;25.70;61.40;;;;;;4835312;29;44865;-81
2023/08/20 08:24:57;;;;;;;2.65;2.30;;;25.60;61.30;;;;;;4832802;29;46333;-80
2023/08/20 08:27:23;;;;;;;2.05;1.85;;;25.60;61.30;;;;;;4825241;29;45280;-82
2023/08/20 08:29:48;;;;;;;2.40;2.20;;;25.70;61.40;;;;;;4842585;29;45322;-82
2023/08/20 08:32:14;;;;;;;2.72;2.20;;;25.70;61.30;;;;;;4826074;29;44995;-81
2023/08/20 08:34:39;;;;;;;2.22;2.03;;;25.70;61.40;;;;;;4831212;29;46838;-82
2023/08/20 08:37:05;;;;;;;2.47;2.17;;;25.70;61.40;;;;;;4825848;29;45164;-81
2023/08/20 08:39:30;;;;;;;2.78;2.47;;;25.70;61.40;;;;;;4836011;29;44887;-81
2023/08/20 08:42:01;;;;;;;2.90;2.60;;;25.70;61.40;;;;;;4831711;29;45289;-82
2023/08/20 08:44:27;;;;;;;2.63;2.42;;;25.70;61.50;;;;;;4840638;29;47347;-82
2023/08/20 08:46:53;;;;;;;4.53;3.50;;;25.70;62.40;;;;;;4843432;29;45251;-82
2023/08/20 08:49:19;;;;;;;3.22;2.88;;;25.70;61.60;;;;;;4816884;29;45176;-79
2023/08/20 08:51:45;;;;;;;3.28;2.75;;;25.70;61.60;;;;;;4843599;29;45009;-82
2023/08/20 08:54:11;;;;;;;2.58;2.38;;;25.70;61.50;;;;;;4840315;29;45223;-81
2023/08/20 08:56:36;;;;;;;2.65;2.45;;;25.70;61.50;;;;;;4844801;29;45213;-81
2023/08/20 08:59:03;;;;;;;4.65;3.42;;;25.70;61.50;;;;;;4828917;29;45260;-81
2023/08/20 09:01:28;;;;;;;3.35;2.40;;;25.70;61.60;;;;;;4808609;29;45246;-84
2023/08/20 09:03:54;;;;;;;3.10;2.55;;;25.70;61.50;;;;;;4831196;29;46542;-80
2023/08/20 09:06:19;;;;;;;2.70;2.47;;;25.70;61.50;;;;;;4845323;29;45512;-82
2023/08/20 09:08:45;;;;;;;3.10;2.70;;;25.70;61.40;;;;;;4829559;29;45383;-80
2023/08/20 09:11:11;;;;;;;2.35;2.15;;;25.70;61.50;;;;;;4842920;29;45197;-78
2023/08/20 09:13:40;;;;;;;2.65;2.42;;;25.70;61.50;;;;;;4830607;29;45255;-80
2023/08/20 09:16:10;;;;;;;3.13;2.75;;;25.70;61.50;;;;;;4828165;29;45532;-81
2023/08/20 09:18:45;;;;;;;2.67;2.45;;;25.70;61.40;;;;;;4810379;29;44858;-83
2023/08/20 09:21:12;;;;;;;2.33;2.00;;;25.80;61.50;;;;;;4838889;29;45272;-80
2023/08/20 09:23:38;;;;;;;2.55;2.35;;;25.70;61.40;;;;;;4846267;29;46647;-81
2023/08/20 09:26:04;;;;;;;3.20;2.13;;;25.70;61.50;;;;;;4828073;29;45264;-78
2023/08/20 09:28:43;;;;;;;3.08;2.60;;;25.80;61.60;;;;;;4844658;29;46278;-79
2023/08/20 09:31:09;;;;;;;2.75;2.55;;;25.80;61.60;;;;;;4824356;29;45486;-80
2023/08/20 09:33:34;;;;;;;2.88;2.42;;;25.80;61.60;;;;;;4845802;29;47336;-82
2023/08/20 09:36:00;;;;;;;2.83;2.63;;;25.80;61.50;;;;;;4826321;29;46193;-81
2023/08/20 09:38:26;;;;;;;2.67;2.47;;;25.70;61.50;;;;;;4832425;29;45023;-80
2023/08/20 09:40:55;;;;;;;2.70;2.50;;;25.70;61.50;;;;;;4844431;29;45111;-83
2023/08/20 09:43:23;;;;;;;2.63;2.42;;;25.80;61.50;;;;;;4824266;29;47595;-81
2023/08/20 09:45:48;;;;;;;3.53;2.45;;;25.80;61.50;;;;;;4830183;29;45376;-80
2023/08/20 09:48:21;;;;;;;3.20;2.70;;;25.80;61.50;;;;;;4849303;29;45324;-78
2023/08/20 09:50:47;;;;;;;2.57;2.03;;;25.80;61.60;;;;;;4823281;29;45366;-81
2023/08/20 09:53:27;;;;;;;2.80;2.58;;;25.80;61.50;;;;;;4830940;29;46676;-80
2023/08/20 09:55:52;;;;;;;3.42;2.88;;;25.80;61.50;;;;;;4846213;29;44733;-78
2023/08/20 09:58:21;;;;;;;2.70;2.50;;;25.80;61.50;;;;;;4806857;29;45165;-81
2023/08/20 10:00:49;;;;;;;3.20;2.90;;;25.80;61.50;;;;;;4834357;29;44752;-79
2023/08/20 10:03:18;;;;;;;4.82;3.38;;;25.80;61.50;;;;;;4830973;29;47857;-79
2023/08/20 10:05:45;;;;;;;3.17;2.88;;;25.80;61.50;;;;;;4821614;29;44940;-81
2023/08/20 10:08:11;;;;;;;3.55;3.10;;;25.80;61.40;;;;;;4848492;29;45154;-79
2023/08/20 10:10:36;;;;;;;2.92;2.72;;;25.80;61.50;;;;;;4834152;29;45631;-81
2023/08/20 10:13:03;;;;;;;2.58;2.35;;;25.80;61.50;;;;;;4831843;29;47366;-81
2023/08/20 10:15:31;;;;;;;3.17;2.88;;;25.80;61.40;;;;;;4813713;29;45158;-79
2023/08/20 10:17:57;;;;;;;2.88;2.63;;;25.80;61.40;;;;;;4835437;29;45187;-84
2023/08/20 10:20:22;;;;;;;2.58;2.38;;;25.80;61.50;;;;;;4835179;29;45247;-81
2023/08/20 10:22:49;;;;;;;3.00;2.80;;;25.80;61.40;;;;;;4814201;29;47455;-79
2023/08/20 10:25:25;;;;;;;4.43;2.72;;;25.80;61.50;;;;;;4831139;29;45236;-80
2023/08/20 10:27:51;;;;;;;2.83;2.60;;;25.90;61.60;;;;;;4840272;29;45224;-81
2023/08/20 10:30:17;;;;;;;3.03;2.72;;;25.90;61.50;;;;;;4817559;29;45448;-85
2023/08/20 10:32:45;;;;;;;3.28;2.97;;;25.90;61.60;;;;;;4845352;29;46211;-85
2023/08/20 10:35:10;;;;;;;3.35;2.70;;;25.90;61.50;;;;;;4832146;29;45846;-81
2023/08/20 10:37:37;;;;;;;3.08;2.78;;;25.90;61.50;;;;;;4815438;29;45197;-82
2023/08/20 10:40:11;;;;;;;3.20;2.90;;;25.90;61.60;;;;;;4828081;29;45191;-86
2023/08/20 10:42:42;;;;;;;5.35;3.55;;;25.90;61.60;;;;;;4825087;29;47484;-81
2023/08/20 10:45:10;;;;;;;3.20;2.90;;;25.90;61.70;;;;;;4844749;29;45285;-81
2023/08/20 10:47:43;;;;;;;3.17;2.88;;;25.90;61.60;;;;;;4847340;29;45985;-81
2023/08/20 10:50:15;;;;;;;;;;;25.90;61.70;;;;;;4803352;29;45244;-84
2023/08/20 10:52:41;;;;;;;2.60;2.40;;;25.90;61.90;;;;;;4850236;29;45422;-80
2023/08/20 10:55:08;;;;;;;4.50;2.70;;;25.90;61.80;;;;;;4821156;29;45656;-83
2023/08/20 10:57:34;;;;;;;2.80;2.60;;;25.90;61.70;;;;;;4836132;29;45249;-80
2023/08/20 11:00:09;;;;;;;2.92;2.63;;;25.90;61.70;;;;;;4819442;29;45246;-81
2023/08/20 11:02:35;;;;;;;2.95;2.65;;;25.90;61.70;;;;;;4833794;29;45531;-80
2023/08/20 11:05:07;;;;;;;3.20;2.90;;;25.90;61.70;;;;;;4806918;29;45566;-79
2023/08/20 11:07:34;;;;;;;3.05;2.63;;;25.90;61.90;;;;;;4840683;29;45333;-81
2023/08/20 11:10:00;;;;;;;3.58;2.70;;;25.90;61.80;;;;;;4824475;29;45259;-82
2023/08/20 11:12:25;;;;;;;2.63;2.42;;;25.90;61.80;;;;;;4820856;29;44992;-84
2023/08/20 11:14:51;;;;;;;3.47;2.85;;;25.90;61.80;;;;;;4840915;29;45348;-82
2023/08/20 11:17:16;;;;;;;3.42;3.13;;;25.90;61.80;;;;;;4797492;29;44836;-82
2023/08/20 11:19:42;;;;;;;2.70;2.50;;;25.90;61.80;;;;;;4806218;29;45575;-81
2023/08/20 11:22:08;;;;;;;3.72;3.03;;;25.90;61.80;;;;;;4802218;29;47034;-83
2023/08/20 11:24:33;;;;;;;3.88;2.70;;;25.90;61.80;;;;;;4806481;29;45516;-81
2023/08/20 11:26:59;;;;;;;3.53;3.00;;;25.90;61.80;;;;;;4804772;29;45126;-82
2023/08/20 11:29:25;;;;;;;2.90;2.50;;;25.90;61.80;;;;;;4834291;29;45181;-83
2023/08/20 11:31:51;;;;;;;3.92;2.70;;;25.90;62.00;;;;;;4817105;29;46369;-80
2023/08/20 11:34:20;;;;;;;3.72;3.40;;;26.00;62.00;;;;;;4825031;29;44636;-79
2023/08/20 11:36:46;;;;;;;3.00;2.80;;;25.90;62.00;;;;;;4826951;29;45456;-82
2023/08/20 11:39:11;;;;;;;3.38;2.90;;;26.00;62.00;;;;;;4822048;29;45304;-80
2023/08/20 11:41:37;;;;;;;3.13;2.83;;;25.90;62.10;;;;;;4799518;29;47301;-84
2023/08/20 11:44:03;;;;;;;2.95;2.58;;;26.00;62.10;;;;;;4831512;29;44729;-81
2023/08/20 11:46:29;;;;;;;3.85;3.10;;;26.00;62.10;;;;;;4816458;29;45270;-81
2023/08/20 11:49:08;;;;;;;2.80;2.60;;;25.90;62.10;;;;;;4822180;29;44775;-82
2023/08/20 11:51:41;;;;;;;2.97;2.67;;;26.00;62.30;;;;;;4807539;29;45425;-81
2023/08/20 11:54:10;;;;;;;;;;;26.00;62.40;;;;;;4823947;29;45696;-82
2023/08/20 11:56:42;;;;;;;5.35;2.92;;;25.90;62.70;;;;;;4841692;29;44699;-85
2023/08/20 11:59:09;;;;;;;3.63;3.05;;;26.00;62.40;;;;;;4823033;29;45436;-81
2023/08/20 12:01:35;;;;;;;2.95;2.65;;;26.00;62.30;;;;;;4817467;29;45458;-80
2023/08/20 12:04:04;;;;;;;3.47;2.97;;;26.00;62.40;;;;;;4811881;29;45176;-80
2023/08/20 12:06:31;;;;;;;2.90;2.70;;;26.00;62.40;;;;;;4834203;29;45315;-82
2023/08/20 12:08:57;;;;;;;3.40;2.42;;;26.00;62.30;;;;;;4827722;29;45594;-81
2023/08/20 12:11:29;;;;;;;3.30;3.00;;;26.00;62.40;;;;;;4819983;29;45932;-81
2023/08/20 12:13:55;;;;;;;3.47;3.17;;;26.00;62.50;;;;;;4850225;29;45526;-81
2023/08/20 12:16:26;;;;;;;4.55;3.20;;;26.00;62.40;;;;;;4847002;29;45397;-81
2023/08/20 12:18:55;;;;;;;3.22;2.80;;;26.00;62.60;;;;;;4818082;29;45613;-81
2023/08/20 12:21:21;;;;;;;3.20;2.95;;;26.00;62.60;;;;;;4819635;29;46613;-80
2023/08/20 12:23:46;;;;;;;5.55;3.80;;;26.00;62.50;;;;;;4859222;29;45254;-80
2023/08/20 12:26:12;;;;;;;3.10;2.80;;;26.00;62.60;;;;;;4831955;29;45419;-82
2023/08/20 12:28:37;;;;;;;4.07;3.28;;;26.00;62.50;;;;;;4847700;29;46493;-81
2023/08/20 12:31:03;;;;;;;3.80;3.05;;;26.00;62.60;;;;;;4812530;29;47164;-80
2023/08/20 12:33:28;;;;;;;2.90;2.70;;;26.00;62.70;;;;;;4828847;29;45142;-82
2023/08/20 12:35:54;;;;;;;3.20;2.92;;;26.00;62.70;;;;;;4839798;29;45461;-81
2023/08/20 12:38:20;;;;;;;3.40;3.10;;;26.00;62.70;;;;;;4853600;29;45343;-81
2023/08/20 12:40:46;;;;;;;3.50;3.20;;;26.00;62.70;;;;;;4839811;29;45515;-82
2023/08/20 12:43:11;;;;;;;3.10;2.80;;;26.00;62.70;;;;;;4831964;29;45610;-81
2023/08/20 12:45:38;;;;;;;3.67;2.95;;;26.00;62.60;;;;;;4831591;29;44981;-79
2023/08/20 12:48:04;;;;;;;3.80;3.42;;;26.00;62.70;;;;;;4826992;29;45528;-81
2023/08/20 12:50:30;;;;;;;3.28;2.97;;;26.00;62.70;;;;;;4825413;29;47347;-81
2023/08/20 12:52:55;;;;;;;2.67;2.47;;;26.00;62.60;;;;;;4841520;29;45278;-80
2023/08/20 12:55:21;;;;;;;2.92;2.72;;;26.00;62.60;;;;;;4829623;29;45046;-83
2023/08/20 12:57:57;;;;;;;3.10;2.75;;;26.00;62.70;;;;;;4830461;29;45497;-82
2023/08/20 13:00:24;;;;;;;3.72;2.95;;;26.00;62.60;;;;;;4821887;29;45329;-81
2023/08/20 13:02:50;;;;;;;3.30;3.00;;;26.00;62.50;;;;;;4811142;29;44760;-82
2023/08/20 13:05:16;;;;;;;3.33;2.60;;;26.00;62.50;;;;;;4845326;29;45164;-82
2023/08/20 13:07:42;;;;;;;3.40;2.70;;;26.00;62.50;;;;;;4815668;29;45538;-82
2023/08/20 13:10:12;;;;;;;3.38;3.03;;;26.00;62.50;;;;;;4844393;29;45276;-83
2023/08/20 13:12:39;;;;;;;3.03;2.83;;;26.00;62.50;;;;;;4818515;29;45280;-82
2023/08/20 13:15:12;;;;;;;3.10;2.90;;;26.00;62.60;;;;;;4825449;29;45641;-83
2023/08/20 13:17:41;;;;;;;3.07;2.77;;;26.10;62.70;;;;;;4820287;29;45489;-83
2023/08/20 13:20:11;;;;;;;2.95;2.50;;;26.00;62.50;;;;;;4825407;29;47263;-86
2023/08/20 13:22:36;;;;;;;3.15;2.85;;;26.00;62.40;;;;;;4830201;29;45363;-83
2023/08/20 13:25:05;;;;;;;3.47;2.90;;;26.00;62.40;;;;;;4838237;29;44664;-88
2023/08/20 13:27:31;;;;;;;2.83;2.58;;;26.00;62.50;;;;;;4827125;29;45192;-82
2023/08/20 13:29:56;;;;;;;2.83;2.58;;;26.00;62.50;;;;;;4807700;29;47200;-83
2023/08/20 13:32:22;;;;;;;3.50;2.78;;;26.00;62.50;;;;;;4828319;29;44897;-82
2023/08/20 13:34:51;;;;;;;3.05;2.75;;;26.00;62.50;;;;;;4838185;29;45381;-82
2023/08/20 13:37:17;;;;;;;3.47;3.17;;;26.00;62.40;;;;;;4828299;29;45885;-83
2023/08/20 13:39:43;;;;;;;2.80;2.60;;;26.10;62.50;;;;;;4840706;29;45479;-81
2023/08/20 13:42:08;;;;;;;3.42;2.72;;;26.10;62.50;;;;;;4836938;29;45787;-80
2023/08/20 13:44:34;;;;;;;3.20;2.85;;;26.00;62.40;;;;;;4809593;29;45284;-82
2023/08/20 13:46:59;;;;;;;3.30;2.35;;;26.00;62.40;;;;;;4838444;29;45164;-81
2023/08/20 13:49:25;;;;;;;2.92;2.72;;;26.00;62.40;;;;;;4847842;29;45622;-82
2023/08/20 13:51:51;;;;;;;2.83;2.50;;;26.10;62.50;;;;;;4825334;29;45695;-82
2023/08/20 13:54:16;;;;;;;3.42;2.70;;;26.10;62.50;;;;;;4832483;29;45041;-83
2023/08/20 13:56:42;;;;;;;3.63;2.75;;;26.10;62.50;;;;;;4830249;29;44991;-83
2023/08/20 13:59:09;;;;;;;3.22;2.92;;;26.10;62.60;;;;;;4809831;29;47108;-83
2023/08/20 14:01:35;;;;;;;3.50;2.78;;;26.10;62.50;;;;;;4843848;29;45513;-80
2023/08/20 14:04:00;;;;;;;2.83;2.63;;;26.10;62.60;;;;;;4814250;29;44958;-83
2023/08/20 14:06:26;;;;;;;4.95;2.83;;;26.10;62.60;;;;;;4841413;29;46790;-81
2023/08/20 14:08:51;;;;;;;3.00;2.70;;;26.10;62.70;;;;;;4855881;29;46273;-82
2023/08/20 14:11:17;;;;;;;3.20;2.50;;;26.10;62.60;;;;;;4799732;29;45356;-82
2023/08/20 14:13:42;;;;;;;2.95;2.65;;;26.10;62.50;;;;;;4843689;29;44885;-84
2023/08/20 14:16:11;;;;;;;3.15;2.50;;;26.10;62.50;;;;;;4821466;29;45691;-82
2023/08/20 14:18:36;;;;;;;2.78;2.58;;;26.10;62.50;;;;;;4821376;29;46333;-82
2023/08/20 14:21:03;;;;;;;2.50;2.30;;;26.10;62.50;;;;;;4839263;29;45121;-81
2023/08/20 14:23:29;;;;;;;2.72;2.53;;;26.10;62.50;;;;;;4849141;29;44606;-81
2023/08/20 14:25:55;;;;;;;2.60;2.40;;;26.10;62.50;;;;;;4829445;29;45559;-81
2023/08/20 14:28:21;;;;;;;2.95;2.60;;;26.10;62.50;;;;;;4833398;29;45482;-82
2023/08/20 14:30:46;;;;;;;2.90;2.60;;;26.10;62.50;;;;;;4836431;29;45145;-82
2023/08/20 14:33:12;;;;;;;4.35;2.97;;;26.10;62.50;;;;;;4849623;29;45286;-82
2023/08/20 14:35:38;;;;;;;3.42;2.60;;;26.10;62.50;;;;;;4824758;29;45291;-81
2023/08/20 14:38:03;;;;;;;3.75;3.05;;;26.10;62.60;;;;;;4815099;29;45246;-82
2023/08/20 14:40:29;;;;;;;2.45;2.25;;;26.10;62.70;;;;;;4848315;29;45066;-83
2023/08/20 14:42:55;;;;;;;3.13;2.45;;;26.10;62.70;;;;;;4831578;29;45247;-81
2023/08/20 14:45:21;;;;;;;2.88;2.58;;;26.10;62.60;;;;;;4831782;29;46069;-81
2023/08/20 14:47:46;;;;;;;2.97;2.67;;;26.10;62.70;;;;;;4829464;29;46622;-82
2023/08/20 14:50:12;;;;;;;3.75;2.70;;;26.10;62.70;;;;;;4834194;29;45559;-80
2023/08/20 14:52:37;;;;;;;3.13;2.83;;;26.10;62.70;;;;;;4817006;29;45412;-81
2023/08/20 14:55:09;;;;;;;2.95;2.65;;;26.10;62.70;;;;;;4836706;29;45549;-86
2023/08/20 14:57:35;;;;;;;2.53;2.33;;;26.10;62.70;;;;;;4834794;29;46322;-83
2023/08/20 15:00:01;;;;;;;2.78;2.58;;;26.10;62.70;;;;;;4799450;29;44956;-82
2023/08/20 15:02:26;;;;;;;2.58;2.38;;;26.10;62.70;;;;;;4824885;29;45458;-82
2023/08/20 15:04:52;;;;;;;4.68;2.80;;;26.10;62.70;;;;;;4852765;29;45197;-82
2023/08/20 15:07:17;;;;;;;2.92;2.67;;;26.10;62.50;;;;;;4840855;29;46840;-83
2023/08/20 15:09:43;;;;;;;2.92;2.63;;;26.10;63.40;;;;;;4828321;29;45210;-86
2023/08/20 15:12:08;;;;;;;2.30;2.10;;;26.10;62.60;;;;;;4845727;29;45314;-84
2023/08/20 15:14:34;;;;;;;2.90;2.70;;;26.10;62.60;;;;;;4836272;29;45446;-84
2023/08/20 15:16:59;;;;;;;3.05;2.65;;;26.00;62.60;;;;;;4841742;29;45346;-82
2023/08/20 15:19:25;;;;;;;2.58;2.38;;;26.10;62.60;;;;;;4824371;29;45206;-81
2023/08/20 15:21:51;;;;;;;2.67;2.47;;;26.10;62.50;;;;;;4846417;29;45294;-81
2023/08/20 15:24:16;;;;;;;2.55;2.28;;;26.10;62.70;;;;;;4816828;29;45091;-83
2023/08/20 15:26:42;;;;;;;3.45;2.70;;;26.10;62.70;;;;;;4831301;29;48460;-84
2023/08/20 15:29:07;;;;;;;3.13;2.70;;;26.00;62.60;;;;;;4846578;29;45577;-82
2023/08/20 15:31:33;;;;;;;3.20;2.60;;;26.10;62.70;;;;;;4826324;29;45028;-83
2023/08/20 15:33:59;;;;;;;3.33;2.88;;;26.10;62.60;;;;;;4847346;29;45052;-82
2023/08/20 15:36:24;;;;;;;3.47;2.55;;;26.10;62.60;;;;;;4812698;29;47088;-84
2023/08/20 15:38:50;;;;;;;2.67;2.45;;;26.10;62.60;;;;;;4826557;29;44885;-83
2023/08/20 15:41:16;;;;;;;2.88;2.60;;;26.10;62.60;;;;;;4810720;29;44885;-82
2023/08/20 15:43:41;;;;;;;2.63;2.42;;;26.10;62.70;;;;;;4819017;29;45210;-81